Time;durP1;ratioP1;P1;durP2;ratioP2;P2;SDS_P1;SDS_P2;PMS_P1;PMS_P2;Temp;Humidity;BMP_temperature;BMP_pressure;BME280_temperature;BME280_humidity;BME280_pressure;Samples;Min_cycle;Max_cycle;Signal;HPM_P1;HPM_P2
2021/07/14 00:01:48;;;;;;;38.83;33.88;;;19.90;99.90;;;;;;5027784;28;20160;-55
2021/07/14 00:04:17;;;;;;;41.75;34.20;;;19.90;99.90;;;;;;5027450;28;20041;-55
2021/07/14 00:06:57;;;;;;;39.70;34.13;;;19.90;99.90;;;;;;5027337;28;20111;-56
2021/07/14 00:09:29;;;;;;;39.45;33.88;;;19.90;99.90;;;;;;5028054;28;20076;-55
2021/07/14 00:12:01;;;;;;;38.75;33.63;;;19.90;99.90;;;;;;5027808;28;20060;-55
2021/07/14 00:22:48;;;;;;;60.40;42.22;;;19.90;99.90;;;;;;5030748;28;20049;-55
2021/07/14 00:25:17;;;;;;;68.68;45.63;;;19.80;99.90;;;;;;5031591;28;20132;-55
2021/07/14 00:27:49;;;;;;;72.55;47.45;;;19.80;99.90;;;;;;5027426;28;20057;-56
2021/07/14 00:30:26;;;;;;;78.13;46.97;;;19.90;99.90;;;;;;5026439;28;20063;-56
2021/07/14 00:32:56;;;;;;;84.10;49.60;;;19.80;99.90;;;;;;5027632;28;20124;-56
2021/07/14 00:35:31;;;;;;;90.50;49.47;;;19.80;99.90;;;;;;5027084;28;20047;-54
2021/07/14 00:38:04;;;;;;;80.88;48.17;;;19.70;99.90;;;;;;5027169;28;20148;-56
2021/07/14 00:40:36;;;;;;;97.63;48.22;;;19.70;99.90;;;;;;5027012;28;20091;-55
2021/07/14 00:43:07;;;;;;;96.60;48.22;;;19.60;99.90;;;;;;5033679;28;20103;-54
2021/07/14 00:45:34;;;;;;;83.53;47.10;;;19.60;99.90;;;;;;5027375;28;20395;-55
2021/07/14 00:48:09;;;;;;;80.22;46.85;;;19.60;99.90;;;;;;5026876;28;20106;-56
2021/07/14 00:50:39;;;;;;;87.18;47.53;;;19.50;99.90;;;;;;5030628;28;20425;-55
2021/07/14 00:53:08;;;;;;;94.40;49.13;;;19.50;99.90;;;;;;5030116;28;20092;-55
2021/07/14 00:55:42;;;;;;;90.00;48.92;;;19.50;99.90;;;;;;5031061;28;20057;-55
2021/07/14 00:58:14;;;;;;;87.32;46.63;;;19.50;99.90;;;;;;5031024;28;20046;-54
2021/07/14 01:00:43;;;;;;;72.47;42.97;;;19.50;99.90;;;;;;5031345;28;20061;-55
2021/07/14 01:03:17;;;;;;;82.88;42.45;;;19.40;99.90;;;;;;5030621;28;20481;-54
2021/07/14 01:05:52;;;;;;;71.55;41.42;;;19.40;99.90;;;;;;5031221;28;20571;-53
2021/07/14 01:08:56;;;;;;;67.13;40.42;;;19.40;99.90;;;;;;5031412;28;20088;-54
2021/07/14 01:11:33;;;;;;;62.13;39.30;;;19.40;99.90;;;;;;4990404;28;20891;-56
2021/07/14 01:14:07;;;;;;;68.00;39.28;;;19.40;99.90;;;;;;4989182;28;20060;-55
2021/07/14 01:16:45;;;;;;;73.07;41.78;;;19.40;99.90;;;;;;4989228;28;20448;-51
2021/07/14 01:19:49;;;;;;;70.10;40.80;;;19.40;99.90;;;;;;4989542;28;20406;-55
2021/07/14 01:22:38;;;;;;;73.88;41.67;;;19.30;99.90;;;;;;4989097;28;20046;-56
2021/07/14 01:25:21;;;;;;;71.13;41.30;;;19.30;99.90;;;;;;4989120;28;20490;-55
2021/07/14 01:27:56;;;;;;;73.88;43.53;;;19.30;99.90;;;;;;4988427;28;20514;-55
2021/07/14 01:30:26;;;;;;;69.40;41.45;;;19.20;99.90;;;;;;4988563;28;20149;-56
2021/07/14 01:32:58;;;;;;;69.93;41.35;;;19.20;99.90;;;;;;4992073;28;20050;-56
2021/07/14 01:35:32;;;;;;;76.50;45.38;;;19.20;99.90;;;;;;4988284;28;20057;-56
2021/07/14 01:38:02;;;;;;;67.78;42.80;;;19.20;99.90;;;;;;4988000;28;20678;-53
2021/07/14 01:40:31;;;;;;;81.53;45.15;;;19.20;99.90;;;;;;4988399;28;20438;-56
2021/07/14 01:43:02;;;;;;;83.78;46.25;;;19.20;99.90;;;;;;4988545;28;20545;-55
2021/07/14 01:45:33;;;;;;;79.38;43.92;;;19.20;99.90;;;;;;4988152;28;20145;-55
2021/07/14 01:48:07;;;;;;;72.57;43.50;;;19.20;99.90;;;;;;5013315;28;20098;-55
2021/07/14 01:50:37;;;;;;;87.55;47.97;;;19.10;99.90;;;;;;5030518;28;20053;-55
2021/07/14 01:53:16;;;;;;;78.60;45.38;;;19.10;99.90;;;;;;5030202;28;20140;-55
2021/07/14 01:55:48;;;;;;;74.28;47.08;;;19.10;99.90;;;;;;5030630;28;20053;-56
2021/07/14 01:58:26;;;;;;;72.45;42.95;;;19.20;99.90;;;;;;5030388;28;20060;-53
2021/07/14 02:00:55;;;;;;;;;;;19.10;99.90;;;;;;5029918;28;20119;-56
2021/07/14 02:05:59;;;;;;;81.10;45.75;;;19.10;99.90;;;;;;5030307;28;20412;-53
2021/07/14 02:08:26;;;;;;;;;;;19.10;99.90;;;;;;5032977;28;20123;-56
2021/07/14 02:11:00;;;;;;;85.13;50.30;;;19.00;99.90;;;;;;5030398;28;19928;-54
2021/07/14 02:13:30;;;;;;;86.97;47.85;;;19.00;99.90;;;;;;5030024;28;20060;-55
2021/07/14 02:15:59;;;;;;;72.43;45.70;;;19.00;99.90;;;;;;5029752;28;20056;-55
2021/07/14 02:18:49;;;;;;;84.97;48.38;;;19.00;99.90;;;;;;5029674;28;20045;-55
2021/07/14 02:21:21;;;;;;;87.55;48.30;;;19.00;99.90;;;;;;5029582;28;20140;-54
2021/07/14 02:23:52;;;;;;;82.63;48.08;;;19.00;99.90;;;;;;5029979;28;20452;-53
2021/07/14 02:26:25;;;;;;;79.00;49.10;;;19.00;99.90;;;;;;5029924;28;20520;-56
2021/07/14 02:29:01;;;;;;;91.65;50.60;;;19.00;99.90;;;;;;5030079;28;20053;-53
2021/07/14 02:31:32;;;;;;;88.25;50.63;;;18.90;99.90;;;;;;5029778;28;20763;-53
2021/07/14 02:34:03;;;;;;;84.53;49.33;;;18.90;99.90;;;;;;5029797;28;20410;-55
2021/07/14 02:36:36;;;;;;;90.28;48.70;;;18.90;99.90;;;;;;5029939;28;20418;-56
2021/07/14 02:39:09;;;;;;;86.22;50.50;;;18.90;99.90;;;;;;5029801;28;20107;-55
2021/07/14 02:41:46;;;;;;;84.88;51.20;;;18.90;99.90;;;;;;5030429;28;20056;-55
2021/07/14 02:44:15;;;;;;;91.47;50.10;;;18.90;99.90;;;;;;5030869;28;20131;-55
2021/07/14 02:46:45;;;;;;;93.80;51.08;;;18.90;99.90;;;;;;5030165;28;20046;-55
2021/07/14 02:49:17;;;;;;;81.68;49.25;;;18.90;99.90;;;;;;5029676;28;20049;-55
2021/07/14 02:51:52;;;;;;;91.18;50.75;;;18.90;99.90;;;;;;5033380;28;20583;-56
2021/07/14 02:54:28;;;;;;;97.28;53.38;;;18.90;99.90;;;;;;5029810;28;20084;-55
2021/07/14 02:57:02;;;;;;;99.32;53.70;;;18.90;99.90;;;;;;5029294;28;20060;-53
2021/07/14 02:59:36;;;;;;;106.07;53.58;;;18.90;99.90;;;;;;5029301;28;20060;-55
2021/07/14 03:02:15;;;;;;;93.88;53.17;;;18.90;99.90;;;;;;5029586;28;20501;-55
2021/07/14 03:04:49;;;;;;;113.15;59.53;;;18.90;99.90;;;;;;5029448;28;20050;-55
2021/07/14 03:07:28;;;;;;;115.30;59.58;;;18.90;99.90;;;;;;5031777;28;20048;-56
2021/07/14 03:10:01;;;;;;;106.82;59.72;;;18.90;99.90;;;;;;5029209;28;20061;-53
2021/07/14 03:12:35;;;;;;;119.75;61.63;;;18.90;99.90;;;;;;5029443;28;20106;-56
2021/07/14 03:15:08;;;;;;;127.65;63.00;;;18.90;99.90;;;;;;5036661;28;20053;-56
2021/07/14 03:17:41;;;;;;;95.05;56.42;;;18.80;99.90;;;;;;5028684;28;20057;-55
2021/07/14 03:20:11;;;;;;;115.30;59.53;;;18.80;99.90;;;;;;5028909;28;20057;-55
2021/07/14 03:22:47;;;;;;;97.32;54.72;;;18.80;99.90;;;;;;5027699;28;20642;-56
2021/07/14 03:25:18;;;;;;;106.88;55.83;;;18.80;99.90;;;;;;5033291;28;20048;-55
2021/07/14 03:27:48;;;;;;;91.07;55.65;;;18.80;99.90;;;;;;5029020;28;20075;-55
2021/07/14 03:30:20;;;;;;;87.05;50.30;;;18.80;99.90;;;;;;5043446;28;20497;-55
2021/07/14 03:32:46;;;;;;;87.27;51.03;;;18.80;99.90;;;;;;5028215;28;20057;-55
2021/07/14 03:35:19;;;;;;;82.63;48.90;;;18.80;99.90;;;;;;5028705;28;20404;-56
2021/07/14 03:37:52;;;;;;;72.20;44.10;;;18.80;99.90;;;;;;5028092;28;20056;-55
2021/07/14 03:40:24;;;;;;;66.97;43.30;;;18.80;99.90;;;;;;5008274;28;20666;-56
2021/07/14 03:42:56;;;;;;;68.78;43.88;;;18.80;99.90;;;;;;5026757;28;20397;-55
2021/07/14 03:45:29;;;;;;;79.18;47.65;;;18.80;99.90;;;;;;5027884;28;20516;-56
2021/07/14 03:47:59;;;;;;;73.05;44.50;;;18.80;99.90;;;;;;5027517;28;20839;-54
2021/07/14 03:50:34;;;;;;;78.93;47.55;;;18.80;99.90;;;;;;5027965;28;20179;-55
2021/07/14 03:53:09;;;;;;;72.05;45.58;;;18.80;99.90;;;;;;5027763;28;20057;-56
2021/07/14 03:55:39;;;;;;;65.35;45.30;;;18.80;99.90;;;;;;5027861;28;20080;-55
2021/07/14 03:58:09;;;;;;;70.72;44.33;;;18.80;99.90;;;;;;5027997;28;20522;-54
2021/07/14 04:00:42;;;;;;;60.90;41.95;;;18.80;99.90;;;;;;5028378;28;20049;-54
2021/07/14 04:03:11;;;;;;;60.22;41.50;;;18.80;99.90;;;;;;5028122;28;20572;-55
2021/07/14 04:05:46;;;;;;;65.50;41.15;;;18.80;99.90;;;;;;5036261;28;20049;-54
2021/07/14 04:08:22;;;;;;;59.38;41.80;;;18.80;99.90;;;;;;5028420;28;20521;-56
2021/07/14 04:10:48;;;;;;;58.10;39.97;;;18.90;99.90;;;;;;5028036;28;20049;-57
2021/07/14 04:13:20;;;;;;;66.65;45.22;;;18.90;99.90;;;;;;5028554;28;20042;-58
2021/07/14 04:15:50;;;;;;;72.97;45.72;;;18.90;99.90;;;;;;5028498;28;20053;-56
2021/07/14 04:18:19;;;;;;;63.50;44.25;;;18.90;99.90;;;;;;5028320;28;20056;-58
2021/07/14 04:20:52;;;;;;;73.85;46.40;;;18.90;99.90;;;;;;5028251;28;20110;-57
2021/07/14 04:23:21;;;;;;;64.65;44.15;;;18.90;99.90;;;;;;5027879;28;20080;-55
2021/07/14 04:25:48;;;;;;;62.67;43.60;;;18.90;99.90;;;;;;5032805;28;20449;-57
2021/07/14 04:28:14;;;;;;;60.13;41.70;;;18.90;99.90;;;;;;5028393;28;20061;-57
2021/07/14 04:30:48;;;;;;;62.15;39.53;;;18.90;99.90;;;;;;5026505;28;20075;-57
2021/07/14 04:33:20;;;;;;;64.38;40.17;;;18.90;99.90;;;;;;5027655;28;20076;-55
2021/07/14 04:35:50;;;;;;;60.28;40.45;;;18.90;99.90;;;;;;5027366;28;20049;-58
2021/07/14 04:38:21;;;;;;;57.83;39.33;;;18.90;99.90;;;;;;5027828;28;20055;-57
2021/07/14 04:40:53;;;;;;;;;;;19.00;99.90;;;;;;5028798;28;20057;-56
2021/07/14 04:43:26;;;;;;;49.53;35.67;;;19.00;99.90;;;;;;5028238;28;19925;-57
2021/07/14 04:46:07;;;;;;;54.63;37.13;;;19.00;99.90;;;;;;5027888;28;20194;-58
2021/07/14 04:48:37;;;;;;;52.95;38.00;;;19.00;99.90;;;;;;5027310;28;20524;-55
2021/07/14 04:51:05;;;;;;;50.88;36.85;;;19.10;99.90;;;;;;5027658;28;20053;-58
2021/07/14 04:53:37;;;;;;;55.03;37.83;;;19.10;99.90;;;;;;5027578;28;20053;-57
2021/07/14 04:56:08;;;;;;;;;;;19.10;99.90;;;;;;5027888;28;20049;-58
2021/07/14 04:58:35;;;;;;;53.85;38.45;;;19.10;99.90;;;;;;5027581;28;20513;-57
2021/07/14 05:01:05;;;;;;;53.42;38.50;;;19.10;99.90;;;;;;5019486;28;20069;-57
2021/07/14 05:03:34;;;;;;;47.38;34.38;;;19.10;99.90;;;;;;5022546;28;20050;-61
2021/07/14 05:06:06;;;;;;;61.17;41.72;;;19.20;99.90;;;;;;5009906;28;20100;-58
2021/07/14 05:08:45;;;;;;;64.93;42.42;;;19.20;99.90;;;;;;5027113;28;20148;-55
2021/07/14 05:11:13;;;;;;;66.72;43.00;;;19.10;99.90;;;;;;5013224;28;20057;-57
2021/07/14 05:13:48;;;;;;;65.45;42.60;;;19.10;99.90;;;;;;5007290;28;20517;-58
2021/07/14 05:16:17;;;;;;;55.90;41.17;;;19.10;99.90;;;;;;5007692;28;20049;-56
2021/07/14 05:18:45;;;;;;;64.43;43.35;;;19.10;99.90;;;;;;5026207;28;20517;-57
2021/07/14 05:21:15;;;;;;;63.88;42.53;;;19.10;99.90;;;;;;5026521;28;20055;-56
2021/07/14 05:23:44;;;;;;;68.00;44.58;;;19.10;99.90;;;;;;5027446;28;20060;-57
2021/07/14 05:26:17;;;;;;;67.95;45.42;;;19.10;99.90;;;;;;5025967;28;20115;-57
2021/07/14 05:28:46;;;;;;;92.13;71.15;;;19.10;99.90;;;;;;5027132;28;20079;-58
2021/07/14 05:31:15;;;;;;;86.03;62.40;;;19.10;99.90;;;;;;5027139;28;20409;-57
2021/07/14 05:33:45;;;;;;;70.32;50.65;;;19.20;99.90;;;;;;5027200;28;20061;-58
2021/07/14 05:36:20;;;;;;;83.80;63.83;;;19.10;99.90;;;;;;5029326;28;20045;-59
2021/07/14 05:38:50;;;;;;;66.63;45.67;;;19.20;99.90;;;;;;5031360;28;20580;-56
2021/07/14 05:41:19;;;;;;;72.38;54.03;;;19.30;99.90;;;;;;5021350;28;20057;-55
2021/07/14 05:43:48;;;;;;;56.75;41.92;;;19.30;99.90;;;;;;5011014;28;20050;-58
2021/07/14 05:46:15;;;;;;;63.13;41.92;;;19.40;99.90;;;;;;5011284;28;20066;-58
2021/07/14 05:48:41;;;;;;;70.57;59.95;;;19.40;99.90;;;;;;5016584;28;20099;-58
2021/07/14 05:51:11;;;;;;;74.82;51.55;;;19.40;99.90;;;;;;5017891;28;20054;-52
2021/07/14 05:53:42;;;;;;;70.95;51.75;;;19.40;99.90;;;;;;5026442;28;20049;-58
2021/07/14 05:56:11;;;;;;;58.80;41.67;;;19.40;99.90;;;;;;5027527;28;20045;-57
2021/07/14 05:58:39;;;;;;;50.00;40.10;;;19.40;99.90;;;;;;5024576;28;20057;-59
2021/07/14 06:01:06;;;;;;;60.50;49.13;;;19.40;99.90;;;;;;5033755;28;20436;-56
2021/07/14 06:03:37;;;;;;;67.25;57.97;;;19.50;99.90;;;;;;5028004;28;20050;-59
2021/07/14 06:06:07;;;;;;;56.65;39.65;;;19.50;99.90;;;;;;5030514;28;20056;-57
2021/07/14 06:08:38;;;;;;;47.13;41.20;;;19.40;99.90;;;;;;5039642;28;20179;-57
2021/07/14 06:11:07;;;;;;;140.02;125.20;;;19.50;99.90;;;;;;5030352;28;20064;-57
2021/07/14 06:13:33;;;;;;;64.18;54.55;;;19.50;99.90;;;;;;5029448;28;20052;-57
2021/07/14 06:16:03;;;;;;;115.63;103.45;;;19.50;99.90;;;;;;5028608;28;20345;-59
2021/07/14 06:18:35;;;;;;;46.40;38.22;;;19.60;99.90;;;;;;5029867;28;20046;-60
2021/07/14 06:21:06;;;;;;;58.63;48.10;;;19.60;99.90;;;;;;5029361;28;20137;-55
2021/07/14 06:23:36;;;;;;;74.35;46.45;;;19.60;99.90;;;;;;5029471;28;20063;-57
2021/07/14 06:26:05;;;;;;;42.30;34.50;;;19.70;99.90;;;;;;5029150;28;20461;-56
2021/07/14 06:28:36;;;;;;;45.15;37.80;;;19.70;99.90;;;;;;5035587;28;20048;-55
2021/07/14 06:31:05;;;;;;;60.72;44.55;;;19.80;99.90;;;;;;5030705;28;20050;-56
2021/07/14 06:33:38;;;;;;;38.22;31.88;;;20.00;99.90;;;;;;5030074;28;20057;-58
2021/07/14 06:36:05;;;;;;;36.63;30.77;;;20.10;99.90;;;;;;5031915;28;20048;-59
2021/07/14 06:38:37;;;;;;;47.42;33.13;;;20.20;99.90;;;;;;5029735;28;20047;-59
2021/07/14 06:41:07;;;;;;;38.67;31.10;;;20.20;99.90;;;;;;5029948;28;20053;-55
2021/07/14 06:43:49;;;;;;;36.40;32.65;;;20.20;99.90;;;;;;5029687;28;20096;-58
2021/07/14 06:46:21;;;;;;;32.38;29.05;;;20.30;99.90;;;;;;5036133;28;20102;-53
2021/07/14 06:48:52;;;;;;;33.38;27.73;;;20.30;99.90;;;;;;5026916;28;20084;-59
2021/07/14 06:51:21;;;;;;;36.38;28.05;;;20.30;99.90;;;;;;5028594;28;20056;-58
2021/07/14 06:53:50;;;;;;;45.20;29.77;;;20.30;99.90;;;;;;5028377;28;20830;-59
2021/07/14 06:56:22;;;;;;;31.92;28.80;;;20.50;99.90;;;;;;5028298;28;20387;-56
2021/07/14 06:58:49;;;;;;;34.63;28.27;;;20.50;99.90;;;;;;5027227;28;20046;-56
2021/07/14 07:01:22;;;;;;;38.88;28.98;;;20.60;99.90;;;;;;5029374;28;20057;-57
2021/07/14 07:03:53;;;;;;;26.40;24.00;;;20.80;99.90;;;;;;5028702;28;20053;-56
2021/07/14 07:06:26;;;;;;;36.28;27.75;;;20.80;99.90;;;;;;5031111;28;20071;-59
2021/07/14 07:08:57;;;;;;;25.58;22.90;;;20.90;99.90;;;;;;5035637;28;20046;-58
2021/07/14 07:11:26;;;;;;;26.73;23.15;;;21.00;99.90;;;;;;5027957;28;20072;-55
2021/07/14 07:13:57;;;;;;;24.00;21.60;;;21.00;99.90;;;;;;5023786;28;20073;-58
2021/07/14 07:16:32;;;;;;;22.67;20.58;;;21.10;99.90;;;;;;5009325;28;20049;-58
2021/07/14 07:19:01;;;;;;;24.23;21.80;;;21.20;99.90;;;;;;5012889;28;20041;-54
2021/07/14 07:21:35;;;;;;;22.45;20.05;;;21.20;99.90;;;;;;5024847;28;20050;-59
2021/07/14 07:24:02;;;;;;;22.92;20.60;;;21.30;99.90;;;;;;5030793;28;20119;-59
2021/07/14 07:26:32;;;;;;;21.63;19.52;;;21.30;99.90;;;;;;5033301;28;20816;-59
2021/07/14 07:29:07;;;;;;;27.65;20.30;;;21.30;99.90;;;;;;5027229;28;20053;-58
2021/07/14 07:31:36;;;;;;;22.80;20.27;;;21.30;99.90;;;;;;5027961;28;20072;-60
2021/07/14 07:34:09;;;;;;;24.73;20.33;;;21.40;99.90;;;;;;5029921;28;20043;-59
2021/07/14 07:36:40;;;;;;;20.80;17.98;;;21.50;99.90;;;;;;5028138;28;20101;-60
2021/07/14 07:39:09;;;;;;;18.70;16.98;;;21.60;99.90;;;;;;5027974;28;20456;-67
2021/07/14 07:41:39;;;;;;;21.00;18.80;;;21.60;99.90;;;;;;5032587;28;20091;-61
2021/07/14 07:44:14;;;;;;;19.42;17.48;;;21.50;99.90;;;;;;5020885;28;20077;-58
2021/07/14 07:46:45;;;;;;;19.85;17.67;;;21.50;99.90;;;;;;5021342;28;20179;-58
2021/07/14 07:49:14;;;;;;;20.38;18.08;;;21.50;99.90;;;;;;5027637;28;20140;-59
2021/07/14 07:51:46;;;;;;;19.65;17.10;;;21.60;99.90;;;;;;5025391;28;20050;-60
2021/07/14 07:54:20;;;;;;;19.92;17.85;;;21.60;99.90;;;;;;5032572;28;20048;-60
2021/07/14 07:56:49;;;;;;;20.23;17.45;;;21.70;99.90;;;;;;5025972;28;20057;-59
2021/07/14 07:59:16;;;;;;;19.55;17.30;;;21.80;99.90;;;;;;5030816;28;20118;-58
2021/07/14 08:01:42;;;;;;;18.92;16.92;;;21.80;99.90;;;;;;5027814;28;20493;-60
2021/07/14 08:04:12;;;;;;;18.65;16.98;;;21.80;99.90;;;;;;5026060;28;20555;-60
2021/07/14 08:06:41;;;;;;;;;;;21.90;99.90;;;;;;5010604;28;20085;-59
2021/07/14 08:09:15;;;;;;;20.08;18.10;;;21.90;99.90;;;;;;5025990;28;19971;-59
2021/07/14 08:11:47;;;;;;;21.33;19.25;;;21.90;99.90;;;;;;5050962;28;20076;-59
2021/07/14 08:14:16;;;;;;;19.17;17.27;;;22.00;99.90;;;;;;5027710;28;20049;-58
2021/07/14 08:16:45;;;;;;;20.70;18.70;;;22.00;99.90;;;;;;5027597;28;20049;-60
2021/07/14 08:19:16;;;;;;;19.73;17.83;;;22.10;99.90;;;;;;5028425;28;20045;-59
2021/07/14 08:21:45;;;;;;;19.50;17.58;;;22.20;99.90;;;;;;5027310;28;20078;-58
2021/07/14 08:24:16;;;;;;;20.63;17.60;;;22.50;99.90;;;;;;5025922;28;20049;-60
2021/07/14 08:26:48;;;;;;;18.75;16.63;;;22.80;99.90;;;;;;5027334;28;20140;-58
2021/07/14 08:29:20;;;;;;;18.50;16.73;;;23.20;99.90;;;;;;5026594;28;20278;-59
2021/07/14 08:31:51;;;;;;;18.15;16.42;;;23.50;99.90;;;;;;5026938;28;20045;-59
2021/07/14 08:34:22;;;;;;;17.00;15.40;;;23.80;99.90;;;;;;5023831;28;20077;-55
2021/07/14 08:36:51;;;;;;;19.00;17.08;;;23.80;99.90;;;;;;5027255;28;20115;-59
2021/07/14 08:39:20;;;;;;;17.98;16.23;;;23.70;99.90;;;;;;5026971;28;20053;-59
2021/07/14 08:41:51;;;;;;;19.50;17.65;;;23.60;99.90;;;;;;5027182;28;20095;-59
2021/07/14 08:44:20;;;;;;;17.63;15.93;;;23.60;99.90;;;;;;5017066;28;20281;-58
2021/07/14 08:46:51;;;;;;;17.70;15.95;;;23.60;99.90;;;;;;5023820;28;20057;-60
2021/07/14 08:49:23;;;;;;;18.40;16.70;;;23.70;99.90;;;;;;5027081;28;20046;-60
2021/07/14 08:51:55;;;;;;;16.60;14.85;;;24.00;99.90;;;;;;5026429;28;20053;-60
2021/07/14 08:54:22;;;;;;;17.13;15.35;;;24.30;99.90;;;;;;5026486;28;20523;-59
2021/07/14 08:56:52;;;;;;;16.92;15.30;;;24.40;99.90;;;;;;5026126;28;20057;-61
2021/07/14 08:59:19;;;;;;;17.63;15.93;;;24.90;99.90;;;;;;5026623;28;20049;-60
2021/07/14 09:01:47;;;;;;;16.95;15.35;;;25.10;99.90;;;;;;5026431;28;20049;-60
2021/07/14 09:04:16;;;;;;;17.50;15.20;;;25.10;99.90;;;;;;5027179;28;20064;-57
2021/07/14 09:06:45;;;;;;;16.42;14.93;;;24.80;99.90;;;;;;5026641;28;20532;-58
2021/07/14 09:09:17;;;;;;;;;;;24.60;99.90;;;;;;5027734;28;20053;-59
2021/07/14 09:11:53;;;;;;;18.23;16.52;;;24.50;99.90;;;;;;5029627;28;19936;-59
2021/07/14 09:14:42;;;;;;;19.45;17.50;;;24.40;99.90;;;;;;5033532;28;20557;-59
2021/07/14 09:17:19;;;;;;;19.17;17.52;;;24.40;99.90;;;;;;5030431;28;20049;-57
2021/07/14 09:19:46;;;;;;;20.15;18.35;;;24.60;99.90;;;;;;5030478;28;20505;-60
2021/07/14 09:22:27;;;;;;;19.10;17.27;;;24.60;99.90;;;;;;5045781;28;20049;-61
2021/07/14 09:24:57;;;;;;;17.73;16.13;;;24.80;99.90;;;;;;5030420;28;20059;-59
2021/07/14 09:27:35;;;;;;;20.48;18.63;;;24.80;99.90;;;;;;5030805;28;20053;-58
2021/07/14 09:30:17;;;;;;;20.15;18.25;;;24.70;99.90;;;;;;5031382;28;20050;-60
2021/07/14 09:32:58;;;;;;;18.92;17.02;;;24.50;99.90;;;;;;5030801;28;20398;-58
2021/07/14 09:35:45;;;;;;;19.77;17.83;;;24.40;99.90;;;;;;5030456;28;20045;-59
2021/07/14 09:38:17;;;;;;;20.50;18.75;;;24.10;99.90;;;;;;5033830;28;20045;-59
2021/07/14 09:40:47;;;;;;;20.83;18.90;;;24.00;99.90;;;;;;5031226;28;20057;-59
2021/07/14 09:43:14;;;;;;;21.15;19.13;;;24.00;99.90;;;;;;5031029;28;20081;-61
2021/07/14 09:45:47;;;;;;;19.80;17.92;;;23.90;99.90;;;;;;5030929;28;20489;-58
2021/07/14 09:48:25;;;;;;;21.70;19.60;;;23.90;99.90;;;;;;5025403;28;20437;-59
2021/07/14 09:50:56;;;;;;;20.85;19.05;;;23.80;99.90;;;;;;5029984;28;20531;-60
2021/07/14 09:53:30;;;;;;;22.77;20.77;;;23.90;99.90;;;;;;5029291;28;20160;-57
2021/07/14 09:55:59;;;;;;;23.00;20.85;;;23.90;99.90;;;;;;5036201;28;20065;-60
2021/07/14 09:58:29;;;;;;;23.95;21.70;;;23.80;99.90;;;;;;5030218;28;20113;-53
2021/07/14 10:01:00;;;;;;;21.23;19.42;;;23.90;99.90;;;;;;5030482;28;20068;-60
2021/07/14 10:03:31;;;;;;;;;;;23.70;99.90;;;;;;5034482;28;20442;-60
2021/07/14 10:06:03;;;;;;;23.50;21.37;;;23.80;99.90;;;;;;5030508;28;19986;-60
2021/07/14 10:08:34;;;;;;;23.00;20.80;;;23.70;99.90;;;;;;5029770;28;20076;-59
2021/07/14 10:11:26;;;;;;;22.67;20.77;;;23.70;99.90;;;;;;5031022;28;20042;-59
2021/07/14 10:14:07;;;;;;;23.52;21.00;;;23.70;99.90;;;;;;5039246;28;20053;-59
2021/07/14 10:16:34;;;;;;;23.20;21.02;;;23.90;99.90;;;;;;5046317;28;20085;-57
2021/07/14 10:19:08;;;;;;;22.30;20.40;;;23.90;99.90;;;;;;5036528;28;20053;-59
2021/07/14 10:21:39;;;;;;;22.42;20.33;;;24.00;99.90;;;;;;5037361;28;20727;-60
2021/07/14 10:24:10;;;;;;;21.92;20.13;;;24.10;99.90;;;;;;5033398;28;20056;-60
2021/07/14 10:26:42;;;;;;;21.27;18.98;;;24.30;99.90;;;;;;5046984;28;20085;-59
2021/07/14 10:29:12;;;;;;;20.20;18.40;;;24.30;99.90;;;;;;5040873;28;20052;-60
2021/07/14 10:31:43;;;;;;;22.35;20.35;;;24.40;99.90;;;;;;5046513;28;20140;-60
2021/07/14 10:34:14;;;;;;;20.95;19.17;;;24.40;99.90;;;;;;5038430;28;20055;-59
2021/07/14 10:36:41;;;;;;;;;;;24.40;99.90;;;;;;5043770;28;20056;-61
2021/07/14 10:39:17;;;;;;;21.02;19.08;;;24.40;99.90;;;;;;5032691;28;19925;-59
2021/07/14 10:41:45;;;;;;;20.92;18.85;;;24.30;99.90;;;;;;5038154;28;20627;-61
2021/07/14 10:44:16;;;;;;;21.10;19.30;;;24.10;99.90;;;;;;5040304;28;20056;-59
2021/07/14 10:46:44;;;;;;;19.67;17.98;;;24.10;99.90;;;;;;5031848;28;20588;-59
2021/07/14 10:49:16;;;;;;;21.23;19.30;;;24.00;99.90;;;;;;5042274;28;20076;-59
2021/07/14 10:51:42;;;;;;;19.67;18.02;;;24.10;99.90;;;;;;5029127;28;20730;-58
2021/07/14 10:54:11;;;;;;;19.77;18.08;;;24.30;99.90;;;;;;5048546;28;20512;-59
2021/07/14 10:56:46;;;;;;;20.60;18.52;;;24.20;99.90;;;;;;5043570;28;20056;-58
2021/07/14 10:59:13;;;;;;;19.48;17.77;;;24.30;99.90;;;;;;5035652;28;20056;-58
2021/07/14 11:01:50;;;;;;;19.67;17.88;;;24.30;99.90;;;;;;5037372;28;20050;-58
2021/07/14 11:04:25;;;;;;;20.00;18.15;;;24.40;99.90;;;;;;5038929;28;20493;-59
2021/07/14 11:06:56;;;;;;;20.90;18.88;;;24.60;99.90;;;;;;5041611;28;20128;-58
2021/07/14 11:09:35;;;;;;;20.63;18.70;;;24.30;99.90;;;;;;5050218;28;20152;-58
2021/07/14 11:12:10;;;;;;;21.52;19.33;;;24.30;99.90;;;;;;5042367;28;20056;-58
2021/07/14 11:14:46;;;;;;;22.50;20.27;;;24.30;99.90;;;;;;5036183;28;20127;-59
2021/07/14 11:17:27;;;;;;;21.98;19.83;;;24.30;99.90;;;;;;5035273;28;20084;-58
2021/07/14 11:19:54;;;;;;;21.88;19.77;;;24.30;99.90;;;;;;5017180;28;20057;-58
2021/07/14 11:22:37;;;;;;;20.85;18.88;;;24.20;99.90;;;;;;5027215;28;20568;-59
2021/07/14 11:25:25;;;;;;;21.23;19.17;;;24.30;99.90;;;;;;5029072;28;20071;-56
2021/07/14 11:27:58;;;;;;;20.10;18.05;;;24.30;99.90;;;;;;5028552;28;20073;-59
2021/07/14 11:30:55;;;;;;;27.95;25.13;;;24.60;99.90;;;;;;5027542;28;20100;-57
2021/07/14 11:33:32;;;;;;;29.25;26.10;;;24.70;99.90;;;;;;5026522;28;20053;-59
2021/07/14 11:36:01;;;;;;;28.88;25.90;;;24.80;99.90;;;;;;5024182;28;20482;-59
2021/07/14 11:38:50;;;;;;;28.95;25.70;;;24.70;99.90;;;;;;5018783;28;20085;-58
2021/07/14 11:41:26;;;;;;;27.20;24.40;;;24.80;99.90;;;;;;5032951;28;20072;-57
2021/07/14 11:43:57;;;;;;;28.70;25.65;;;24.60;99.90;;;;;;5032843;28;20152;-58
2021/07/14 11:46:30;;;;;;;29.73;26.33;;;24.50;99.90;;;;;;5026701;28;20056;-58
2021/07/14 11:49:08;;;;;;;32.90;25.98;;;24.30;99.90;;;;;;5028882;28;20056;-57
2021/07/14 11:51:38;;;;;;;30.88;27.70;;;24.50;99.90;;;;;;5019679;28;20049;-58
2021/07/14 11:54:25;;;;;;;24.85;22.35;;;24.60;99.90;;;;;;5027633;28;20049;-58
2021/07/14 11:56:52;;;;;;;30.33;27.10;;;24.60;99.90;;;;;;5029809;28;20073;-59
2021/07/14 11:59:26;;;;;;;31.17;28.27;;;24.50;99.90;;;;;;5026862;28;20045;-58
2021/07/14 12:02:02;;;;;;;24.50;21.90;;;24.90;99.90;;;;;;5027672;28;20060;-58
2021/07/14 12:04:30;;;;;;;22.65;20.55;;;25.00;99.90;;;;;;5035122;28;20064;-59
2021/07/14 12:07:10;;;;;;;24.38;21.20;;;25.30;99.90;;;;;;5027804;28;20053;-59
2021/07/14 12:09:40;;;;;;;24.85;22.33;;;25.40;99.90;;;;;;5029246;28;20049;-58
2021/07/14 12:12:15;;;;;;;23.25;20.95;;;25.60;99.90;;;;;;5027839;28;20053;-58
2021/07/14 12:14:43;;;;;;;24.90;22.38;;;25.50;99.90;;;;;;5028311;28;20168;-58
2021/07/14 12:17:24;;;;;;;24.45;20.48;;;25.40;99.90;;;;;;5029073;28;20041;-58
2021/07/14 12:19:57;;;;;;;;;;;25.70;99.90;;;;;;5034568;28;20080;-58
2021/07/14 12:22:35;;;;;;;20.42;18.52;;;25.30;99.90;;;;;;5029109;28;19925;-57
2021/07/14 12:25:12;;;;;;;19.58;17.65;;;25.40;99.90;;;;;;5042091;28;20064;-58
2021/07/14 12:27:43;;;;;;;20.50;18.50;;;25.30;99.90;;;;;;5030661;28;20057;-58
2021/07/14 12:30:20;;;;;;;20.67;18.73;;;24.90;99.90;;;;;;5042594;28;20045;-58
2021/07/14 12:32:57;;;;;;;20.70;18.67;;;24.90;99.90;;;;;;5032979;28;20574;-58
2021/07/14 12:35:33;;;;;;;21.30;19.15;;;24.80;99.90;;;;;;5026610;28;20068;-59
2021/07/14 12:38:06;;;;;;;21.50;18.65;;;24.70;99.90;;;;;;5042396;28;20498;-58
2021/07/14 12:40:47;;;;;;;21.52;18.48;;;24.50;99.90;;;;;;5034018;28;20045;-57
2021/07/14 12:43:24;;;;;;;22.53;20.20;;;24.60;99.90;;;;;;5027422;28;20111;-57
2021/07/14 12:45:53;;;;;;;20.75;18.85;;;24.40;99.90;;;;;;5027821;28;20516;-57
2021/07/14 12:48:23;;;;;;;20.77;18.67;;;24.30;99.90;;;;;;5026933;28;20174;-56
2021/07/14 12:50:54;;;;;;;20.63;18.52;;;24.30;99.90;;;;;;5026794;28;20072;-56
2021/07/14 12:53:29;;;;;;;20.05;17.80;;;24.30;99.90;;;;;;5026505;28;20062;-57
2021/07/14 12:55:57;;;;;;;21.88;19.73;;;24.60;99.90;;;;;;5030301;28;20502;-58
2021/07/14 12:58:25;;;;;;;41.03;37.22;;;24.80;99.90;;;;;;5025016;28;20054;-58
2021/07/14 13:01:03;;;;;;;31.77;28.65;;;25.10;99.90;;;;;;5022284;28;20075;-58
2021/07/14 13:03:31;;;;;;;22.58;19.05;;;25.50;99.90;;;;;;5027326;28;20088;-58
2021/07/14 13:06:05;;;;;;;23.20;21.10;;;25.60;99.90;;;;;;5027489;28;20650;-57
2021/07/14 13:08:32;;;;;;;21.67;19.63;;;25.70;99.90;;;;;;5028798;28;20041;-56